Time;durP1;ratioP1;P1;durP2;ratioP2;P2;SDS_P1;SDS_P2;PMS_P1;PMS_P2;Temp;Humidity;BMP_temperature;BMP_pressure;BME280_temperature;BME280_humidity;BME280_pressure;Samples;Min_cycle;Max_cycle;Signal;HPM_P1;HPM_P2
2024/02/18 00:00:07;;;;;;;19.37;17.67;;;7.20;99.90;;;;;;4842185;29;20581;-76
2024/02/18 00:02:38;;;;;;;18.70;16.90;;;7.20;99.90;;;;;;4842420;29;20217;-76
2024/02/18 00:05:05;;;;;;;17.43;15.83;;;7.30;99.90;;;;;;4844049;29;20262;-76
2024/02/18 00:07:34;;;;;;;17.60;15.97;;;7.30;99.90;;;;;;4842531;29;20201;-76
2024/02/18 00:10:00;;;;;;;17.10;15.50;;;7.30;99.90;;;;;;4842126;29;20234;-76
2024/02/18 00:12:27;;;;;;;17.83;16.23;;;7.30;99.90;;;;;;4842532;29;20202;-76
2024/02/18 00:14:54;;;;;;;17.57;16.03;;;7.30;99.90;;;;;;4843357;29;20233;-76
2024/02/18 00:17:21;;;;;;;18.10;16.63;;;7.30;99.90;;;;;;4843821;29;20245;-76
2024/02/18 00:19:48;;;;;;;17.17;15.70;;;7.30;99.90;;;;;;4842097;29;20242;-75
2024/02/18 00:22:14;;;;;;;19.50;17.57;;;7.30;99.90;;;;;;4844054;29;20685;-76
2024/02/18 00:24:43;;;;;;;19.50;17.80;;;7.30;99.90;;;;;;4843598;29;20245;-76
2024/02/18 00:27:10;;;;;;;19.07;17.47;;;7.30;99.90;;;;;;4843931;29;20207;-76
2024/02/18 00:29:37;;;;;;;19.50;17.83;;;7.40;99.90;;;;;;4841878;29;20230;-76
2024/02/18 00:32:05;;;;;;;18.50;17.00;;;7.40;99.90;;;;;;4842871;29;20202;-76
2024/02/18 00:34:31;;;;;;;18.93;17.33;;;7.40;99.90;;;;;;4842214;29;20213;-76
2024/02/18 00:36:58;;;;;;;19.37;17.50;;;7.40;99.90;;;;;;4843360;29;20203;-76
2024/02/18 00:39:25;;;;;;;19.47;17.77;;;7.40;99.90;;;;;;4841698;29;20238;-75
2024/02/18 00:41:53;;;;;;;17.70;16.10;;;7.40;99.90;;;;;;4842536;29;20241;-76
2024/02/18 00:44:23;;;;;;;17.43;16.03;;;7.40;99.90;;;;;;4841747;29;20218;-76
2024/02/18 00:46:50;;;;;;;17.67;16.07;;;7.40;99.90;;;;;;4841632;29;20217;-76
2024/02/18 00:49:17;;;;;;;17.53;16.13;;;7.40;99.90;;;;;;4843191;29;20242;-76
2024/02/18 00:51:44;;;;;;;18.37;16.67;;;7.50;99.90;;;;;;4843305;29;20207;-76
2024/02/18 00:54:11;;;;;;;17.67;16.17;;;7.40;99.90;;;;;;4839722;29;20199;-76
2024/02/18 00:56:37;;;;;;;17.13;15.67;;;7.50;99.90;;;;;;4843513;29;20226;-76
2024/02/18 00:59:06;;;;;;;17.30;15.90;;;7.50;99.90;;;;;;4841371;29;20235;-76
2024/02/18 01:01:33;;;;;;;17.67;16.07;;;7.50;99.90;;;;;;4843169;29;20241;-76
2024/02/18 01:04:00;;;;;;;17.73;16.27;;;7.50;99.90;;;;;;4842878;29;20588;-77
2024/02/18 01:06:27;;;;;;;17.80;16.30;;;7.50;99.90;;;;;;4843143;29;20241;-77
2024/02/18 01:08:54;;;;;;;16.77;15.37;;;7.50;99.90;;;;;;4841594;29;20290;-76
2024/02/18 01:11:20;;;;;;;17.43;15.93;;;7.50;99.90;;;;;;4841830;29;20203;-77
2024/02/18 01:13:47;;;;;;;17.80;16.40;;;7.50;99.90;;;;;;4842518;29;20678;-77
2024/02/18 01:16:15;;;;;;;18.20;16.50;;;7.50;99.90;;;;;;4843484;29;20230;-76
2024/02/18 01:18:43;;;;;;;17.87;16.40;;;7.50;99.90;;;;;;4842694;29;20242;-76
2024/02/18 01:21:10;;;;;;;18.63;16.83;;;7.50;99.90;;;;;;4843272;29;20215;-77
2024/02/18 01:23:37;;;;;;;18.37;16.87;;;7.50;99.90;;;;;;4841276;29;20221;-77
2024/02/18 01:26:04;;;;;;;17.50;16.10;;;7.50;99.90;;;;;;4843244;29;20326;-76
2024/02/18 01:28:31;;;;;;;16.93;15.60;;;7.50;99.90;;;;;;4842948;29;20230;-76
2024/02/18 01:30:58;;;;;;;18.53;17.03;;;7.50;99.90;;;;;;4842943;29;20199;-76
2024/02/18 01:33:26;;;;;;;17.70;16.30;;;7.50;99.90;;;;;;4843281;29;20207;-77
2024/02/18 01:35:53;;;;;;;17.67;16.17;;;7.60;99.90;;;;;;4843196;29;20246;-77
2024/02/18 01:38:20;;;;;;;17.77;16.37;;;7.60;99.90;;;;;;4841525;29;20206;-77
2024/02/18 01:40:46;;;;;;;18.07;16.57;;;7.60;99.90;;;;;;4842926;29;20226;-76
2024/02/18 01:43:17;;;;;;;16.93;15.63;;;7.60;99.90;;;;;;4842860;29;20270;-77
2024/02/18 01:45:45;;;;;;;18.20;16.70;;;7.60;99.90;;;;;;4842939;29;20209;-76
2024/02/18 01:48:13;;;;;;;18.07;16.40;;;7.60;99.90;;;;;;4842294;29;20206;-76
2024/02/18 01:50:42;;;;;;;17.63;16.13;;;7.60;99.90;;;;;;4842627;29;20221;-77
2024/02/18 01:53:10;;;;;;;17.73;16.33;;;7.60;99.90;;;;;;4842639;29;20578;-77
2024/02/18 01:55:37;;;;;;;17.43;16.00;;;7.60;99.90;;;;;;4841099;29;20321;-77
2024/02/18 01:58:05;;;;;;;17.70;16.30;;;7.50;99.90;;;;;;4840942;29;20678;-77
2024/02/18 02:00:32;;;;;;;18.13;16.50;;;7.50;99.90;;;;;;4842769;29;20226;-76
2024/02/18 02:02:59;;;;;;;18.17;16.63;;;7.50;99.90;;;;;;4842586;29;20258;-76
2024/02/18 02:05:26;;;;;;;17.10;15.70;;;7.50;99.90;;;;;;4841585;29;20214;-76
2024/02/18 02:07:55;;;;;;;18.10;16.60;;;7.50;99.90;;;;;;4842385;29;20207;-76
2024/02/18 02:10:23;;;;;;;17.50;16.00;;;7.50;99.90;;;;;;4841121;29;20235;-76
2024/02/18 02:12:49;;;;;;;17.30;15.90;;;7.50;99.90;;;;;;4841265;29;20199;-76
2024/02/18 02:15:16;;;;;;;18.43;17.03;;;7.40;99.90;;;;;;4840639;29;20305;-76
2024/02/18 02:17:43;;;;;;;18.57;17.07;;;7.40;99.90;;;;;;4842953;29;20250;-76
2024/02/18 02:20:11;;;;;;;18.23;16.63;;;7.40;99.90;;;;;;4840597;29;20223;-76
2024/02/18 02:22:38;;;;;;;18.73;17.23;;;7.40;99.90;;;;;;4842210;29;20670;-77
2024/02/18 02:25:09;;;;;;;18.63;17.13;;;7.40;99.90;;;;;;4842127;29;20198;-76
2024/02/18 02:27:38;;;;;;;18.37;16.70;;;7.30;99.90;;;;;;4842705;29;20213;-76
2024/02/18 02:30:08;;;;;;;18.30;16.70;;;7.30;99.90;;;;;;4842129;29;20218;-77
2024/02/18 02:32:35;;;;;;;17.73;16.37;;;7.30;99.90;;;;;;4842347;29;20203;-76
2024/02/18 02:35:03;;;;;;;19.37;17.67;;;7.20;99.90;;;;;;4841840;29;20226;-76
2024/02/18 02:37:30;;;;;;;17.83;16.43;;;7.20;99.90;;;;;;4841369;29;20218;-76
2024/02/18 02:39:56;;;;;;;17.27;15.97;;;7.30;99.90;;;;;;4841910;29;20642;-76
2024/02/18 02:42:23;;;;;;;18.03;16.53;;;7.20;99.90;;;;;;4842531;29;20584;-77
2024/02/18 02:44:50;;;;;;;18.17;16.73;;;7.20;99.90;;;;;;4841925;29;20663;-76
2024/02/18 02:47:18;;;;;;;17.57;16.07;;;7.10;99.90;;;;;;4841811;29;20210;-76
2024/02/18 02:49:45;;;;;;;18.47;16.87;;;7.10;99.90;;;;;;4840221;29;20282;-77
2024/02/18 02:52:12;;;;;;;17.63;16.20;;;7.10;99.90;;;;;;4842483;29;20206;-76
2024/02/18 02:54:39;;;;;;;18.13;16.83;;;7.00;99.90;;;;;;4840630;29;20680;-77
2024/02/18 02:57:06;;;;;;;17.87;16.37;;;7.00;99.90;;;;;;4840487;29;20237;-76
2024/02/18 02:59:32;;;;;;;18.20;16.80;;;6.90;99.90;;;;;;4841223;29;20253;-75
2024/02/18 03:01:59;;;;;;;17.93;16.47;;;6.80;99.90;;;;;;4841248;29;20785;-76
2024/02/18 03:04:27;;;;;;;18.30;16.83;;;6.80;99.90;;;;;;4839966;29;20214;-77
2024/02/18 03:06:54;;;;;;;18.50;17.10;;;6.70;99.90;;;;;;4841185;29;20198;-76
2024/02/18 03:09:21;;;;;;;18.30;16.80;;;6.50;99.90;;;;;;4844327;29;20671;-76
2024/02/18 03:11:48;;;;;;;19.00;17.40;;;6.50;99.90;;;;;;4843211;29;20641;-76
2024/02/18 03:14:14;;;;;;;19.33;17.43;;;6.40;99.90;;;;;;4843275;29;20206;-76
2024/02/18 03:16:41;;;;;;;18.70;17.20;;;6.30;99.90;;;;;;4843117;29;20230;-76
2024/02/18 03:19:08;;;;;;;19.10;17.30;;;6.30;99.90;;;;;;4844284;29;20221;-75
2024/02/18 03:21:36;;;;;;;18.53;17.13;;;6.20;99.90;;;;;;4844418;29;20259;-76
2024/02/18 03:24:04;;;;;;;19.47;17.83;;;6.20;99.90;;;;;;4842690;29;20211;-76
2024/02/18 03:26:31;;;;;;;19.20;17.63;;;6.00;99.90;;;;;;4844265;29;20693;-76
2024/02/18 03:28:58;;;;;;;18.70;17.00;;;6.00;99.90;;;;;;4868587;23;20329;-76
2024/02/18 03:31:25;;;;;;;18.90;17.40;;;5.90;99.90;;;;;;4848171;29;20247;-75
2024/02/18 03:33:52;;;;;;;19.30;17.60;;;5.80;99.90;;;;;;4857068;29;20261;-75
2024/02/18 03:36:19;;;;;;;19.30;17.73;;;5.80;99.90;;;;;;4854734;29;20232;-75
2024/02/18 03:38:47;;;;;;;20.57;18.70;;;5.70;99.90;;;;;;4857747;29;20263;-75
2024/02/18 03:41:13;;;;;;;19.10;17.60;;;5.60;99.90;;;;;;4843189;29;20260;-75
2024/02/18 03:43:40;;;;;;;19.97;18.37;;;5.50;99.90;;;;;;4845219;29;20212;-75
2024/02/18 03:46:08;;;;;;;19.77;18.10;;;5.50;99.90;;;;;;4846197;29;20190;-76
2024/02/18 03:48:35;;;;;;;19.10;17.40;;;5.40;99.90;;;;;;4845898;29;20204;-75
2024/02/18 03:51:01;;;;;;;19.77;18.17;;;5.40;99.90;;;;;;4844706;29;20576;-75
2024/02/18 03:53:28;;;;;;;19.87;18.03;;;5.30;99.90;;;;;;4846881;29;20225;-76
2024/02/18 03:55:57;;;;;;;20.37;18.67;;;5.30;99.90;;;;;;4842901;29;20281;-78
2024/02/18 03:58:24;;;;;;;19.10;17.50;;;5.30;99.90;;;;;;4842168;29;20207;-75
2024/02/18 04:00:51;;;;;;;20.13;18.47;;;5.30;99.90;;;;;;4842358;29;20676;-75
2024/02/18 04:03:18;;;;;;;19.63;17.83;;;5.20;99.90;;;;;;4842895;29;20274;-75
2024/02/18 04:05:45;;;;;;;19.23;17.53;;;5.20;99.90;;;;;;4842735;29;20280;-75
2024/02/18 04:08:11;;;;;;;19.77;18.03;;;5.20;99.90;;;;;;4842079;29;20223;-75
2024/02/18 04:10:38;;;;;;;18.77;17.37;;;5.20;99.90;;;;;;4842684;29;20216;-75
2024/02/18 04:13:06;;;;;;;19.20;17.37;;;5.10;99.90;;;;;;4842118;29;20736;-75
2024/02/18 04:15:33;;;;;;;18.70;17.20;;;5.10;99.90;;;;;;4840890;29;20208;-75
2024/02/18 04:18:00;;;;;;;19.20;17.60;;;5.00;99.90;;;;;;4842578;29;20221;-75
2024/02/18 04:20:27;;;;;;;19.20;17.40;;;4.90;99.90;;;;;;4841125;29;20283;-75
2024/02/18 04:22:53;;;;;;;18.30;16.90;;;4.80;99.90;;;;;;4842138;29;20202;-75
2024/02/18 04:25:21;;;;;;;19.77;17.80;;;4.70;99.90;;;;;;4842207;29;20201;-75
2024/02/18 04:27:48;;;;;;;18.43;16.70;;;4.80;99.90;;;;;;4841083;29;20208;-75
2024/02/18 04:30:16;;;;;;;19.00;17.40;;;4.80;99.90;;;;;;4839896;29;20291;-77
2024/02/18 04:32:43;;;;;;;19.17;17.50;;;4.70;99.90;;;;;;4848179;29;20200;-77
2024/02/18 04:35:09;;;;;;;19.27;17.40;;;4.70;99.90;;;;;;4846000;29;20709;-78
2024/02/18 04:37:36;;;;;;;19.27;17.47;;;4.60;99.90;;;;;;4850603;29;20226;-77
2024/02/18 04:40:04;;;;;;;18.97;17.57;;;4.60;99.90;;;;;;4846554;29;20228;-77
2024/02/18 04:42:31;;;;;;;19.30;17.50;;;4.50;99.90;;;;;;4841963;29;20691;-77
2024/02/18 04:44:58;;;;;;;18.53;16.93;;;4.50;99.90;;;;;;4843437;29;20207;-77
2024/02/18 04:47:26;;;;;;;18.00;16.67;;;4.40;99.90;;;;;;4843424;29;20199;-77
2024/02/18 04:49:53;;;;;;;19.40;17.70;;;4.40;99.90;;;;;;4842015;29;20222;-78
2024/02/18 04:52:20;;;;;;;19.77;17.93;;;4.40;99.90;;;;;;4837685;29;20680;-77
2024/02/18 04:54:47;;;;;;;19.23;17.73;;;4.40;99.90;;;;;;4843159;29;20664;-77
2024/02/18 04:57:13;;;;;;;18.97;17.40;;;4.50;99.90;;;;;;4836950;29;20247;-77
2024/02/18 04:59:40;;;;;;;18.77;17.30;;;4.50;99.90;;;;;;4832752;29;20624;-77
2024/02/18 05:02:09;;;;;;;18.60;17.13;;;4.60;99.90;;;;;;4835827;29;20499;-78
2024/02/18 05:04:37;;;;;;;19.57;17.87;;;4.80;99.90;;;;;;4852136;29;20256;-77
2024/02/18 05:07:05;;;;;;;18.33;16.93;;;4.90;99.90;;;;;;4850895;29;20201;-77
2024/02/18 05:09:31;;;;;;;19.10;17.60;;;5.00;99.90;;;;;;4842623;29;20234;-77
2024/02/18 05:11:58;;;;;;;18.87;17.40;;;5.10;99.90;;;;;;4844021;29;20655;-78
2024/02/18 05:14:25;;;;;;;19.60;17.87;;;5.10;99.90;;;;;;4847086;29;20211;-77
2024/02/18 05:16:52;;;;;;;20.10;18.50;;;5.00;99.90;;;;;;4852161;29;20264;-77
2024/02/18 05:19:19;;;;;;;19.80;18.23;;;5.00;99.90;;;;;;4846274;29;20228;-78
2024/02/18 05:21:47;;;;;;;19.60;17.97;;;5.00;99.90;;;;;;4845409;29;20207;-77
2024/02/18 05:24:14;;;;;;;20.00;18.30;;;5.00;99.90;;;;;;4841695;29;20203;-75
2024/02/18 05:26:42;;;;;;;20.03;18.33;;;5.10;99.90;;;;;;4839755;29;20199;-76
2024/02/18 05:29:09;;;;;;;19.70;18.17;;;5.00;99.90;;;;;;4849914;29;20237;-75
2024/02/18 05:31:36;;;;;;;20.00;18.33;;;5.00;99.90;;;;;;4832619;29;20235;-75
2024/02/18 05:34:03;;;;;;;20.13;18.43;;;5.00;99.90;;;;;;4849562;29;20203;-75
2024/02/18 05:36:30;;;;;;;20.20;18.60;;;4.90;99.90;;;;;;4854055;29;20256;-75
2024/02/18 05:38:58;;;;;;;19.30;17.87;;;4.80;99.90;;;;;;4848423;29;20222;-75
2024/02/18 05:41:25;;;;;;;20.37;18.67;;;4.80;99.90;;;;;;4847878;29;20214;-75
2024/02/18 05:43:52;;;;;;;20.10;18.50;;;4.80;99.90;;;;;;4849721;29;20598;-75
2024/02/18 05:46:19;;;;;;;19.73;18.13;;;4.80;99.90;;;;;;4843252;29;20211;-74
2024/02/18 05:48:45;;;;;;;19.93;18.40;;;4.80;99.90;;;;;;4844333;29;20553;-75
2024/02/18 05:51:13;;;;;;;19.87;18.33;;;4.70;99.90;;;;;;4841106;29;20204;-76
2024/02/18 05:53:40;;;;;;;20.40;18.77;;;4.80;99.90;;;;;;4852586;29;20231;-77
2024/02/18 05:56:09;;;;;;;20.07;18.47;;;4.70;99.90;;;;;;4839696;29;20210;-78
2024/02/18 05:58:36;;;;;;;20.43;18.73;;;4.80;99.90;;;;;;4846236;29;20236;-76
2024/02/18 06:01:02;;;;;;;20.90;19.03;;;4.80;99.90;;;;;;4845714;29;20264;-77
2024/02/18 06:03:30;;;;;;;20.87;19.17;;;4.80;99.90;;;;;;4841424;29;20227;-76
2024/02/18 06:05:57;;;;;;;20.60;18.80;;;4.90;99.90;;;;;;4844185;29;20209;-76
2024/02/18 06:08:26;;;;;;;21.33;19.53;;;4.90;99.90;;;;;;4843044;29;20261;-78
2024/02/18 06:10:53;;;;;;;21.00;19.23;;;4.90;99.90;;;;;;4843000;29;20200;-84
2024/02/18 06:13:22;;;;;;;20.50;18.83;;;4.90;99.90;;;;;;4844290;29;20212;-78
2024/02/18 06:15:50;;;;;;;20.57;18.97;;;5.00;99.90;;;;;;4843463;29;20209;-78
2024/02/18 06:18:17;;;;;;;20.70;19.10;;;5.00;99.90;;;;;;4844453;29;20326;-80
2024/02/18 06:20:45;;;;;;;20.63;19.03;;;5.10;99.90;;;;;;4847432;29;20235;-78
2024/02/18 06:23:11;;;;;;;21.33;19.43;;;5.10;99.90;;;;;;4846563;29;20206;-79
2024/02/18 06:25:38;;;;;;;21.30;19.50;;;5.10;99.90;;;;;;4845655;29;20233;-79
2024/02/18 06:28:08;;;;;;;22.57;20.33;;;5.10;99.90;;;;;;4845751;29;20197;-79
2024/02/18 06:30:38;;;;;;;22.07;20.27;;;5.20;99.90;;;;;;4845393;29;20259;-78
2024/02/18 06:33:06;;;;;;;20.70;18.93;;;5.20;99.90;;;;;;4843737;29;20205;-77
2024/02/18 06:35:33;;;;;;;21.37;19.57;;;5.20;99.90;;;;;;4843360;29;20686;-78
2024/02/18 06:38:00;;;;;;;20.33;18.73;;;5.20;99.90;;;;;;4848255;29;20649;-79
2024/02/18 06:40:27;;;;;;;20.50;18.90;;;5.20;99.90;;;;;;4843207;29;20550;-78
2024/02/18 06:42:53;;;;;;;21.67;19.77;;;5.20;99.90;;;;;;4843993;29;20692;-77
2024/02/18 06:45:20;;;;;;;20.23;18.73;;;5.20;99.90;;;;;;4843006;29;20839;-76
2024/02/18 06:47:48;;;;;;;21.17;19.43;;;5.30;99.90;;;;;;4846113;29;20209;-76
2024/02/18 06:50:15;;;;;;;20.03;18.50;;;5.30;99.90;;;;;;4846026;29;20603;-76
2024/02/18 06:52:42;;;;;;;20.30;18.60;;;5.40;99.90;;;;;;4845908;29;20586;-76
2024/02/18 06:55:10;;;;;;;20.67;18.87;;;5.40;99.90;;;;;;4845942;29;20728;-76
2024/02/18 06:57:37;;;;;;;19.43;18.03;;;5.40;99.90;;;;;;4844138;29;20228;-76
2024/02/18 07:00:05;;;;;;;20.67;18.67;;;5.50;99.90;;;;;;4844536;29;20228;-76
2024/02/18 07:02:32;;;;;;;20.70;19.00;;;5.60;99.90;;;;;;4846489;29;20214;-76
2024/02/18 07:05:00;;;;;;;20.93;19.23;;;5.60;99.90;;;;;;4846262;29;20210;-76
2024/02/18 07:07:27;;;;;;;20.90;19.20;;;5.70;99.90;;;;;;4845916;29;20241;-76
2024/02/18 07:09:54;;;;;;;20.17;18.57;;;5.70;99.90;;;;;;4846823;29;20290;-76
2024/02/18 07:12:21;;;;;;;20.03;18.47;;;5.70;99.90;;;;;;4845966;29;20207;-76
2024/02/18 07:14:47;;;;;;;19.83;18.40;;;5.80;99.90;;;;;;4846860;29;20689;-77
2024/02/18 07:17:19;;;;;;;18.90;17.40;;;5.80;99.90;;;;;;4845069;29;20267;-76
2024/02/18 07:19:46;;;;;;;18.70;17.33;;;5.90;99.90;;;;;;4846327;29;20279;-76
2024/02/18 07:22:15;;;;;;;20.10;18.23;;;5.90;99.90;;;;;;4845019;29;20289;-76
2024/02/18 07:24:42;;;;;;;18.60;17.17;;;5.90;99.90;;;;;;4845958;29;20391;-76
2024/02/18 07:27:09;;;;;;;19.40;17.90;;;5.90;99.90;;;;;;4846566;29;20202;-76
2024/02/18 07:29:36;;;;;;;19.20;17.60;;;5.90;99.90;;;;;;4845035;29;20229;-76
2024/02/18 07:32:03;;;;;;;19.60;18.03;;;5.80;99.90;;;;;;4845246;29;20201;-76
2024/02/18 07:34:30;;;;;;;20.30;18.60;;;5.90;99.90;;;;;;4844617;29;20279;-76
2024/02/18 07:36:58;;;;;;;19.93;18.23;;;6.00;99.90;;;;;;4844764;29;20701;-76
2024/02/18 07:39:27;;;;;;;19.40;17.73;;;6.00;99.90;;;;;;4845633;29;20226;-75
2024/02/18 07:41:54;;;;;;;20.47;18.67;;;6.20;99.90;;;;;;4846673;29;20202;-76
2024/02/18 07:44:21;;;;;;;19.97;18.27;;;6.30;99.90;;;;;;4845725;29;20210;-76
2024/02/18 07:46:48;;;;;;;18.83;17.37;;;6.50;99.90;;;;;;4847829;29;20267;-76
2024/02/18 07:49:15;;;;;;;17.73;16.33;;;6.90;99.90;;;;;;4849334;29;20233;-76
2024/02/18 07:51:43;;;;;;;16.73;15.33;;;7.20;99.90;;;;;;4849855;29;20329;-76
2024/02/18 07:54:10;;;;;;;14.53;13.50;;;7.50;99.90;;;;;;4849632;29;20285;-76
2024/02/18 07:56:44;;;;;;;15.90;14.47;;;7.90;99.90;;;;;;4850846;29;20206;-76
2024/02/18 07:59:11;;;;;;;15.60;14.40;;;8.20;99.90;;;;;;4849273;29;20226;-76
2024/02/18 08:01:38;;;;;;;13.70;12.43;;;8.30;99.90;;;;;;4845777;29;20585;-76
2024/02/18 08:04:05;;;;;;;9.10;8.17;;;8.60;99.90;;;;;;4845736;29;20279;-76
2024/02/18 08:06:32;;;;;;;13.03;11.83;;;9.00;99.90;;;;;;4845468;29;20241;-77
2024/02/18 08:08:59;;;;;;;12.30;8.67;;;9.20;99.90;;;;;;4845011;29;20226;-77
2024/02/18 08:11:26;;;;;;;9.23;8.30;;;9.30;99.90;;;;;;4844691;29;20202;-77
2024/02/18 08:13:54;;;;;;;10.10;9.03;;;9.30;99.90;;;;;;4846553;29;20759;-77
2024/02/18 08:16:21;;;;;;;10.07;8.50;;;9.50;99.90;;;;;;4846647;29;20211;-77
2024/02/18 08:18:48;;;;;;;9.07;8.10;;;9.70;99.90;;;;;;4846841;29;20232;-77
2024/02/18 08:21:15;;;;;;;17.50;16.17;;;10.00;99.90;;;;;;4847504;29;20203;-77
2024/02/18 08:23:41;;;;;;;12.93;11.80;;;10.30;99.90;;;;;;4848827;29;20269;-76
2024/02/18 08:26:08;;;;;;;11.30;10.10;;;10.40;99.90;;;;;;4846810;29;20216;-77
2024/02/18 08:28:35;;;;;;;17.93;16.60;;;10.60;99.90;;;;;;4845606;29;20209;-76
2024/02/18 08:31:03;;;;;;;17.87;16.17;;;10.90;99.90;;;;;;4847955;29;20201;-77
2024/02/18 08:33:31;;;;;;;17.93;16.40;;;11.10;99.90;;;;;;4847958;29;20214;-77
2024/02/18 08:35:57;;;;;;;17.03;15.73;;;11.20;99.90;;;;;;4847951;29;20201;-77
2024/02/18 08:38:24;;;;;;;16.80;15.40;;;11.40;99.90;;;;;;4847319;29;20233;-77
2024/02/18 08:40:51;;;;;;;17.97;16.47;;;11.60;99.90;;;;;;4847446;29;20702;-77
2024/02/18 08:43:18;;;;;;;17.60;15.90;;;12.10;99.90;;;;;;4849254;29;20263;-77
2024/02/18 08:45:44;;;;;;;16.83;15.40;;;12.50;99.90;;;;;;4849247;29;20207;-77
2024/02/18 08:48:13;;;;;;;15.43;14.17;;;12.70;99.90;;;;;;4848452;29;20203;-77
2024/02/18 08:50:40;;;;;;;16.40;14.80;;;12.40;99.90;;;;;;4850841;29;20223;-77
2024/02/18 08:53:08;;;;;;;15.93;14.63;;;12.50;99.90;;;;;;4849054;29;20233;-76
2024/02/18 08:55:36;;;;;;;15.50;14.30;;;12.70;99.90;;;;;;4849269;29;20584;-77
2024/02/18 08:58:04;;;;;;;16.60;15.10;;;13.00;99.90;;;;;;4851991;29;20213;-77
2024/02/18 09:00:31;;;;;;;15.90;14.63;;;13.30;99.90;;;;;;4847201;29;20227;-77
2024/02/18 09:02:58;;;;;;;13.60;12.43;;;13.30;99.90;;;;;;4850600;29;20214;-78
2024/02/18 09:05:28;;;;;;;9.57;8.17;;;13.40;99.90;;;;;;4850471;29;20208;-77
2024/02/18 09:07:54;;;;;;;12.17;8.97;;;13.60;99.90;;;;;;4851006;29;20197;-77
2024/02/18 09:10:21;;;;;;;9.23;8.23;;;13.60;99.90;;;;;;4850670;29;20251;-77
2024/02/18 09:12:48;;;;;;;9.17;8.13;;;13.70;99.90;;;;;;4851062;29;20231;-77
2024/02/18 09:15:15;;;;;;;10.00;8.23;;;13.80;99.90;;;;;;4850460;29;20207;-77
2024/02/18 09:17:42;;;;;;;9.97;8.93;;;13.80;99.90;;;;;;4850963;29;20236;-77
2024/02/18 09:20:09;;;;;;;15.93;14.60;;;14.00;99.90;;;;;;4847472;29;20260;-77
2024/02/18 09:22:37;;;;;;;16.43;15.03;;;13.90;99.90;;;;;;4851525;29;20262;-77
2024/02/18 09:25:05;;;;;;;10.70;8.50;;;13.80;99.90;;;;;;4851602;29;20288;-77
2024/02/18 09:27:32;;;;;;;9.17;8.17;;;13.90;99.90;;;;;;4852546;29;20265;-77
2024/02/18 09:29:58;;;;;;;10.13;9.10;;;13.80;99.90;;;;;;4876854;23;20229;-78
2024/02/18 09:32:25;;;;;;;9.33;8.00;;;13.80;99.90;;;;;;4859424;29;20207;-78
2024/02/18 09:34:52;;;;;;;9.47;8.57;;;13.80;99.90;;;;;;4854300;29;20208;-78
2024/02/18 09:37:19;;;;;;;7.63;6.77;;;14.00;99.90;;;;;;4853916;29;20701;-78
2024/02/18 09:39:47;;;;;;;13.20;12.10;;;14.20;99.90;;;;;;4853255;29;20707;-78
2024/02/18 09:42:15;;;;;;;14.33;12.93;;;14.20;99.90;;;;;;4845378;29;20585;-78
2024/02/18 09:44:42;;;;;;;13.93;12.83;;;14.00;99.90;;;;;;4843379;29;20239;-78
2024/02/18 09:47:14;;;;;;;12.00;10.80;;;14.20;99.90;;;;;;4845083;29;20219;-80
2024/02/18 09:49:42;;;;;;;10.03;9.13;;;14.30;99.90;;;;;;4848134;29;20324;-81
2024/02/18 09:52:16;;;;;;;10.90;9.80;;;14.30;99.90;;;;;;4848175;29;20217;-82
2024/02/18 09:54:43;;;;;;;9.07;8.07;;;14.40;99.90;;;;;;4838918;29;20212;-84
2024/02/18 09:57:12;;;;;;;11.70;10.50;;;14.40;99.90;;;;;;4857832;29;20256;-81
2024/02/18 09:59:42;;;;;;;11.63;10.60;;;14.30;99.90;;;;;;4849064;29;20235;-79
2024/02/18 10:02:12;;;;;;;10.97;9.97;;;14.50;99.90;;;;;;4838549;29;20206;-79
2024/02/18 10:04:46;;;;;;;11.40;8.57;;;14.50;99.90;;;;;;4834145;29;20261;-82
2024/02/18 10:07:14;;;;;;;9.60;8.50;;;14.40;99.90;;;;;;4829459;29;20757;-77
2024/02/18 10:09:40;;;;;;;9.37;7.33;;;14.20;99.90;;;;;;4829606;29;20223;-78
2024/02/18 10:12:08;;;;;;;9.90;8.17;;;14.30;99.90;;;;;;4826059;29;20213;-78
2024/02/18 10:14:36;;;;;;;11.40;10.40;;;14.30;99.90;;;;;;4832716;29;20221;-78
2024/02/18 10:17:04;;;;;;;11.93;10.80;;;14.40;99.90;;;;;;4838017;29;20212;-78
2024/02/18 10:19:31;;;;;;;12.43;11.33;;;14.50;99.90;;;;;;4841744;29;20241;-78
2024/02/18 10:22:00;;;;;;;12.27;11.27;;;14.50;99.90;;;;;;4845616;29;20207;-78
2024/02/18 10:24:27;;;;;;;6.97;5.93;;;14.50;99.90;;;;;;4837761;29;20195;-78
2024/02/18 10:26:56;;;;;;;7.77;7.07;;;14.60;99.90;;;;;;4843709;29;20241;-78
2024/02/18 10:29:25;;;;;;;8.70;7.63;;;14.60;99.90;;;;;;4841167;29;20237;-78
2024/02/18 10:31:53;;;;;;;7.93;6.77;;;14.50;99.90;;;;;;4859201;29;20758;-78
2024/02/18 10:34:19;;;;;;;7.70;6.80;;;14.50;99.90;;;;;;4840193;29;20211;-78
2024/02/18 10:36:49;;;;;;;7.77;6.97;;;14.40;99.90;;;;;;4845380;29;20632;-77
2024/02/18 10:39:17;;;;;;;7.63;6.90;;;14.50;99.90;;;;;;4842968;29;20245;-78
2024/02/18 10:41:52;;;;;;;8.10;7.40;;;14.50;99.90;;;;;;4840451;29;20248;-78
2024/02/18 10:44:19;;;;;;;11.93;10.93;;;14.50;99.90;;;;;;4841454;29;20271;-78
2024/02/18 10:46:55;;;;;;;9.23;8.33;;;14.50;99.90;;;;;;4843932;29;20221;-81
2024/02/18 10:49:38;;;;;;;9.63;8.63;;;14.40;99.90;;;;;;4832536;29;20237;-83
2024/02/18 10:59:37;;;;;;;12.57;11.57;;;14.40;99.90;;;;;;4841517;29;20281;-85
2024/02/18 11:02:12;;;;;;;9.33;8.43;;;14.40;99.90;;;;;;4846013;29;20231;-84
2024/02/18 11:04:40;;;;;;;12.80;11.80;;;14.50;99.90;;;;;;4849854;29;20201;-84
2024/02/18 11:07:16;;;;;;;11.73;10.73;;;14.40;99.90;;;;;;4864023;29;20209;-85
2024/02/18 11:10:01;;;;;;;12.97;11.97;;;14.50;99.90;;;;;;4843414;29;20225;-82
2024/02/18 11:12:33;;;;;;;9.30;8.50;;;14.40;99.90;;;;;;4843846;29;20199;-83
2024/02/18 11:15:01;;;;;;;8.30;7.37;;;14.40;99.90;;;;;;4859976;29;20217;-82
2024/02/18 11:17:38;;;;;;;9.90;9.07;;;14.50;99.90;;;;;;4844158;29;20213;-82
2024/02/18 11:20:10;;;;;;;10.70;9.67;;;14.50;99.90;;;;;;4842545;29;20270;-83
2024/02/18 11:22:38;;;;;;;9.00;8.03;;;14.40;99.90;;;;;;4841417;29;20224;-83
2024/02/18 11:25:08;;;;;;;6.20;5.60;;;14.40;99.90;;;;;;4846529;29;20226;-83
2024/02/18 11:27:51;;;;;;;7.87;5.70;;;14.40;99.90;;;;;;4840647;29;20238;-82
2024/02/18 11:30:28;;;;;;;8.07;7.23;;;14.40;99.90;;;;;;4837721;29;20249;-82
2024/02/18 11:32:57;;;;;;;6.93;5.80;;;14.40;99.90;;;;;;4840216;29;20225;-82
2024/02/18 11:35:24;;;;;;;5.87;5.13;;;14.40;99.90;;;;;;4843074;29;20223;-83
2024/02/18 11:38:00;;;;;;;6.23;5.57;;;14.40;99.90;;;;;;4839848;29;20568;-82
2024/02/18 11:40:35;;;;;;;6.50;5.17;;;14.40;99.90;;;;;;4843515;29;20230;-80
2024/02/18 11:43:02;;;;;;;10.17;6.20;;;14.40;99.90;;;;;;4837830;29;20221;-79
2024/02/18 11:45:29;;;;;;;8.63;6.43;;;14.50;99.90;;;;;;4845636;29;20206;-79
2024/02/18 11:47:58;;;;;;;7.70;5.83;;;14.60;99.90;;;;;;4839689;29;20217;-79
2024/02/18 11:50:25;;;;;;;8.47;6.20;;;14.60;99.90;;;;;;4837681;29;20233;-79
2024/02/18 11:52:53;;;;;;;7.40;5.80;;;14.70;99.90;;;;;;4846634;29;20209;-79
2024/02/18 11:55:21;;;;;;;6.70;5.20;;;14.70;99.90;;;;;;4849272;29;20727;-80
2024/02/18 11:57:49;;;;;;;6.70;6.07;;;14.60;99.90;;;;;;4836649;29;20328;-79
2024/02/18 12:00:18;;;;;;;6.93;6.23;;;14.60;99.90;;;;;;4838052;29;20596;-79
2024/02/18 12:02:50;;;;;;;10.57;9.57;;;14.70;99.90;;;;;;4842569;29;20529;-79
2024/02/18 12:05:20;;;;;;;10.07;9.27;;;14.70;99.90;;;;;;4857723;29;20313;-79
2024/02/18 12:07:47;;;;;;;11.40;10.50;;;14.70;99.90;;;;;;4838014;29;20206;-79
2024/02/18 12:10:14;;;;;;;11.17;10.17;;;14.80;99.90;;;;;;4842173;29;20637;-79
2024/02/18 12:12:42;;;;;;;12.53;11.63;;;14.70;99.90;;;;;;4842444;29;20209;-79
2024/02/18 12:15:09;;;;;;;8.33;7.53;;;14.70;99.90;;;;;;4842368;29;20210;-79
2024/02/18 12:17:36;;;;;;;6.40;5.70;;;14.70;99.90;;;;;;4840610;29;20214;-81
2024/02/18 12:20:06;;;;;;;6.80;6.10;;;14.70;99.90;;;;;;4842556;29;20286;-80
2024/02/18 12:22:34;;;;;;;6.03;5.43;;;14.80;99.90;;;;;;4842721;29;20221;-81
2024/02/18 12:25:01;;;;;;;9.70;8.83;;;14.80;99.90;;;;;;4841681;29;20232;-81
2024/02/18 12:27:28;;;;;;;6.27;5.67;;;14.70;99.90;;;;;;4842309;29;20206;-81
2024/02/18 12:29:55;;;;;;;12.10;11.20;;;14.70;99.90;;;;;;4840131;29;20753;-79
2024/02/18 12:32:22;;;;;;;6.90;5.77;;;14.60;99.90;;;;;;4841106;29;20683;-80
2024/02/18 12:34:50;;;;;;;7.50;6.57;;;14.60;99.90;;;;;;4841076;29;20501;-80
2024/02/18 12:37:17;;;;;;;8.37;6.70;;;14.60;99.90;;;;;;4838261;29;20225;-79
2024/02/18 12:39:50;;;;;;;6.80;5.40;;;14.60;99.90;;;;;;4840690;29;20241;-79
2024/02/18 12:42:17;;;;;;;5.33;4.80;;;14.70;99.90;;;;;;4841820;29;20579;-79
2024/02/18 12:44:44;;;;;;;6.20;5.20;;;14.70;99.90;;;;;;4835573;29;20207;-79
2024/02/18 12:47:11;;;;;;;5.47;4.90;;;14.80;99.90;;;;;;4837964;29;20647;-79